createdAt,value
2024-02-01T00:02:27.953Z,99662.27
2024-02-01T00:07:30.034Z,99664.05
2024-02-01T00:12:31.983Z,99666.13
2024-02-01T00:17:33.963Z,99658.61
2024-02-01T00:22:36.113Z,99651.86
2024-02-01T00:27:38.020Z,99646.13
2024-02-01T00:32:40.040Z,99644.68
2024-02-01T00:37:42.540Z,99634.39
2024-02-01T00:42:44.496Z,99623.48
2024-02-01T00:47:49.647Z,99610.95
2024-02-01T00:52:51.931Z,99597.29
2024-02-01T00:57:54.519Z,99586.35
2024-02-01T01:02:56.468Z,99570.72
2024-02-01T01:07:58.814Z,99552.36
2024-02-01T01:13:00.714Z,99544.56
2024-02-01T01:18:03.413Z,99533.23
2024-02-01T01:23:07.382Z,99509.40
2024-02-01T01:28:09.789Z,99499.25
2024-02-01T01:33:11.698Z,99487.39
2024-02-01T01:38:13.794Z,99484.55
2024-02-01T01:43:15.696Z,99469.28
2024-02-01T01:48:17.757Z,99443.41
2024-02-01T01:53:19.813Z,99438.77
2024-02-01T01:58:22.170Z,99443.34
2024-02-01T02:03:28.683Z,99431.80
2024-02-01T02:08:31.117Z,99420.20
2024-02-01T02:13:33.061Z,99414.31
2024-02-01T02:18:35.038Z,99413.77
2024-02-01T02:23:37.618Z,99415.05
2024-02-01T02:28:40.265Z,99405.89
2024-02-01T02:33:42.843Z,99400.14
2024-02-01T02:38:44.829Z,99399.23
2024-02-01T02:43:46.889Z,99416.14
2024-02-01T02:48:48.941Z,99422.83
2024-02-01T02:53:51.011Z,99413.63
2024-02-01T02:58:53.436Z,99412.77
2024-02-01T03:03:55.451Z,99417.57
2024-02-01T03:08:57.789Z,99420.68
2024-02-01T03:14:00.079Z,99419.21
2024-02-01T03:19:02.202Z,99417.53
2024-02-01T03:24:05.326Z,99410.68
2024-02-01T03:29:07.531Z,99409.98
2024-02-01T03:34:12.526Z,99403.51
2024-02-01T03:39:23.994Z,99400.97
2024-02-01T03:44:26.638Z,99409.42
2024-02-01T03:49:29.136Z,99405.70
2024-02-01T03:54:32.667Z,99387.66
2024-02-01T03:59:35.390Z,99381.11
2024-02-01T04:09:40.414Z,99388.48
2024-02-01T04:14:42.375Z,99389.02
2024-02-01T04:19:44.807Z,99391.40
2024-02-01T04:24:46.735Z,99388.85
2024-02-01T04:29:48.610Z,99392.71
2024-02-01T04:34:50.637Z,99404.05
2024-02-01T04:39:52.851Z,99402.78
2024-02-01T04:44:59.733Z,99398.21
2024-02-01T04:50:03.344Z,99391.73
2024-02-01T04:55:08.211Z,99382.26
2024-02-01T05:00:15.910Z,99381.17
2024-02-01T05:05:18.958Z,99376.36
2024-02-01T05:10:21.036Z,99375.48
2024-02-01T05:15:23.139Z,99363.65
2024-02-01T05:20:26.162Z,99352.31
2024-02-01T05:25:28.913Z,99352.92
2024-02-01T05:30:31.310Z,99362.91
2024-02-01T05:35:35.521Z,99363.89
2024-02-01T05:40:40.963Z,99365.28
2024-02-01T05:45:42.813Z,99357.75
2024-02-01T05:50:44.711Z,99347.16
2024-02-01T05:55:53.911Z,99351.78
2024-02-01T06:00:56.196Z,99340.21
2024-02-01T06:05:58.209Z,99339.95
2024-02-01T06:11:00.093Z,99338.91
2024-02-01T06:16:02.083Z,99328.40
2024-02-01T06:21:04.034Z,99324.85
2024-02-01T06:26:06.453Z,99334.23
2024-02-01T06:31:14.950Z,99340.40
2024-02-01T06:36:16.965Z,99335.96
2024-02-01T06:41:29.115Z,99326.20
2024-02-01T06:46:54.237Z,99319.59
2024-02-01T06:52:04.150Z,99319.23
2024-02-01T06:57:14.827Z,99323.98
2024-02-01T07:02:36.194Z,99325.36
2024-02-01T07:07:48.051Z,99327.42
2024-02-01T07:13:08.995Z,99317.80
2024-02-01T07:18:17.131Z,99311.60
2024-02-01T07:23:23.163Z,99312.23
2024-02-01T07:28:47.943Z,99312.46
2024-02-01T07:34:08.961Z,99316.48
2024-02-01T07:39:29.675Z,99320.05
2024-02-01T07:44:50.336Z,99316.73
2024-02-01T07:50:11.097Z,99320.08
2024-02-01T07:55:31.699Z,99317.80
2024-02-01T08:00:35.545Z,99318.38
2024-02-01T08:05:57.543Z,99326.46
2024-02-01T08:10:59.675Z,99329.29
2024-02-01T08:16:04.629Z,99327.38
2024-02-01T08:21:15.463Z,99328.39
2024-02-01T08:26:17.679Z,99327.95
2024-02-01T08:31:19.762Z,99327.68
2024-02-01T08:36:21.852Z,99324.42
2024-02-01T08:41:23.852Z,99321.54
2024-02-01T08:46:25.729Z,99325.88
2024-02-01T08:51:27.804Z,99317.94
2024-02-01T08:56:38.388Z,99322.15
2024-02-01T09:01:40.526Z,99331.54
2024-02-01T09:06:42.558Z,99344.52
2024-02-01T09:11:44.884Z,99354.15
2024-02-01T09:16:47.177Z,99366.65
2024-02-01T09:21:49.056Z,99378.02
2024-02-01T09:26:51.071Z,99390.14
2024-02-01T09:31:57.448Z,99396.77
2024-02-01T09:36:59.567Z,99393.65
2024-02-01T09:42:13.235Z,99390.59
2024-02-01T09:47:16.059Z,99392.66
2024-02-01T09:52:18.708Z,99396.48
2024-02-01T09:57:20.783Z,99394.36
2024-02-01T10:02:23.860Z,99397.10
2024-02-01T10:07:25.854Z,99392.70
2024-02-01T10:12:27.958Z,99382.47
2024-02-01T10:17:31.588Z,99377.30
2024-02-01T10:22:34.061Z,99370.48
2024-02-01T10:27:42.297Z,99369.50
2024-02-01T10:32:47.716Z,99363.02
2024-02-01T10:37:53.194Z,99350.03
2024-02-01T10:43:00.943Z,99346.48
2024-02-01T10:48:09.592Z,99344.48
2024-02-01T10:53:16.808Z,99342.34
2024-02-01T10:58:20.748Z,99338.88
2024-02-01T11:03:28.842Z,99333.89
2024-02-01T11:08:34.375Z,99325.02
2024-02-01T11:13:36.212Z,99312.33
2024-02-01T11:18:48.893Z,99314.41
2024-02-01T11:23:51.050Z,99319.53
2024-02-01T11:28:54.376Z,99322.58
2024-02-01T11:33:56.901Z,99320.88
2024-02-01T11:38:58.895Z,99320.48
2024-02-01T11:44:01.128Z,99318.98
2024-02-01T11:49:03.214Z,99315.34
2024-02-01T11:54:05.770Z,99313.28
2024-02-01T11:59:08.155Z,99313.92
2024-02-01T12:04:10.230Z,99316.37
2024-02-01T12:09:15.721Z,99316.67
2024-02-01T12:14:22.744Z,99313.27
2024-02-01T12:19:25.576Z,99307.52
2024-02-01T12:24:28.180Z,99304.74
2024-02-01T12:29:30.746Z,99304.59
2024-02-01T12:34:37.685Z,99302.39
2024-02-01T12:39:41.887Z,99301.62
2024-02-01T12:44:44.348Z,99302.50
2024-02-01T12:49:46.688Z,99303.03
2024-02-01T12:54:48.596Z,99302.42
2024-02-01T12:59:50.671Z,99303.69
2024-02-01T13:04:54.013Z,99300.27
2024-02-01T13:09:56.176Z,99301.13
2024-02-01T13:15:07.357Z,99301.17
2024-02-01T13:20:23.549Z,99295.64
2024-02-01T13:25:26.066Z,99295.80
2024-02-01T13:30:28.535Z,99297.81
2024-02-01T13:35:32.173Z,99305.50
2024-02-01T13:40:34.724Z,99305.81
2024-02-01T13:45:36.633Z,99302.30
2024-02-01T13:50:39.074Z,99305.08
2024-02-01T13:55:40.928Z,99307.08
2024-02-01T14:00:51.454Z,99305.84
2024-02-01T14:06:00.397Z,99308.67
2024-02-01T14:11:02.710Z,99305.29
2024-02-01T14:16:08.730Z,99312.48
2024-02-01T14:21:10.787Z,99317.56
2024-02-01T14:26:12.784Z,99328.89
2024-02-01T14:31:15.285Z,99341.33
2024-02-01T14:36:18.673Z,99345.88
2024-02-01T14:41:21.109Z,99349.98
2024-02-01T14:46:22.938Z,99349.66
2024-02-01T14:51:24.763Z,99347.67
2024-02-01T14:56:26.728Z,99350.98
2024-02-01T15:01:29.615Z,99352.48
2024-02-01T15:06:32.440Z,99358.05
2024-02-01T15:11:34.535Z,99366.80
2024-02-01T15:16:36.576Z,99364.23
2024-02-01T15:21:40.908Z,99364.66
2024-02-01T15:26:44.163Z,99378.02
2024-02-01T15:31:48.834Z,99382.54
2024-02-01T15:36:50.678Z,99387.66
2024-02-01T15:41:59.262Z,99389.46
2024-02-01T15:47:01.901Z,99392.79
2024-02-01T15:52:05.367Z,99397.70
2024-02-01T15:57:07.315Z,99406.54
2024-02-01T16:02:10.599Z,99405.23
2024-02-01T16:07:12.618Z,99410.36
2024-02-01T16:12:20.149Z,99424.57
2024-02-01T16:17:22.665Z,99430.24
2024-02-01T16:22:47.272Z,99437.12
2024-02-01T16:28:04.946Z,99444.06
2024-02-01T16:33:21.108Z,99450.55
2024-02-01T16:38:26.114Z,99458.71
2024-02-01T16:43:41.874Z,99465.63
2024-02-01T16:48:44.316Z,99468.16
2024-02-01T16:53:48.237Z,99472.77
2024-02-01T16:58:57.791Z,99474.81
2024-02-01T17:04:00.635Z,99482.05
2024-02-01T17:09:05.977Z,99491.67
2024-02-01T17:14:30.760Z,99493.73
2024-02-01T17:19:38.440Z,99494.14
2024-02-01T17:24:40.676Z,99496.44
2024-02-01T17:29:45.123Z,99496.91
2024-02-01T17:34:47.357Z,99499.23
2024-02-01T17:39:49.717Z,99499.21
2024-02-01T17:44:51.804Z,99499.73
2024-02-01T17:49:54.804Z,99500.86
2024-02-01T17:54:57.738Z,99503.73
2024-02-01T18:00:00.011Z,99502.23
2024-02-01T18:05:02.059Z,99503.39
2024-02-01T18:10:09.674Z,99509.08
2024-02-01T18:15:37.222Z,99512.88
2024-02-01T18:20:39.654Z,99510.45
2024-02-01T18:25:42.371Z,99518.98
2024-02-01T18:30:44.723Z,99525.52
2024-02-01T18:35:57.173Z,99522.77
2024-02-01T18:40:59.694Z,99528.67
2024-02-01T18:46:03.406Z,99526.11
2024-02-01T18:51:07.644Z,99522.36
2024-02-01T18:56:29.347Z,99520.46
2024-02-01T19:01:36.262Z,99535.68
2024-02-01T19:06:41.809Z,99533.21
2024-02-01T19:11:46.532Z,99534.05
2024-02-01T19:16:50.674Z,99536.89
2024-02-01T19:21:53.062Z,99538.27
2024-02-01T19:26:57.579Z,99541.86
2024-02-01T19:32:00.463Z,99547.03
2024-02-01T19:37:02.388Z,99546.73
2024-02-01T19:42:05.492Z,99552.25
2024-02-01T19:47:07.561Z,99556.02
2024-02-01T19:52:09.546Z,99554.34
2024-02-01T19:57:11.445Z,99555.46
2024-02-01T20:02:14.336Z,99550.31
2024-02-01T20:07:16.703Z,99551.94
2024-02-01T20:12:18.779Z,99551.87
2024-02-01T20:17:21.136Z,99558.45
2024-02-01T20:22:23.475Z,99560.40
2024-02-01T20:27:25.516Z,99562.47
2024-02-01T20:32:30.528Z,99569.07
2024-02-01T20:37:33.952Z,99572.48
2024-02-01T20:42:35.834Z,99584.58
2024-02-01T20:47:41.085Z,99583.28
2024-02-01T20:52:43.366Z,99590.66
2024-02-01T20:57:48.630Z,99587.34
2024-02-01T21:02:53.734Z,99591.74
2024-02-01T21:07:56.170Z,99594.78
2024-02-01T21:13:15.031Z,99597.08
2024-02-01T21:18:20.654Z,99601.41
2024-02-01T21:23:27.036Z,99603.68
2024-02-01T21:28:29.207Z,99604.45
2024-02-01T21:33:31.251Z,99608.27
2024-02-01T21:38:33.912Z,99604.66
2024-02-01T21:43:37.472Z,99595.16
2024-02-01T21:48:40.729Z,99593.70
2024-02-01T21:53:44.277Z,99599.43
2024-02-01T21:58:47.193Z,99595.94
2024-02-01T22:03:49.517Z,99600.91
2024-02-01T22:08:55.484Z,99599.39
2024-02-01T22:13:57.373Z,99601.70
2024-02-01T22:18:59.376Z,99602.65
2024-02-01T22:24:01.477Z,99605.52
2024-02-01T22:29:03.785Z,99606.05
2024-02-01T22:34:05.931Z,99617.32
2024-02-01T22:39:17.262Z,99620.17
2024-02-01T22:44:20.554Z,99621.63
2024-02-01T22:49:22.586Z,99619.59
2024-02-01T22:54:25.547Z,99618.55
2024-02-01T22:59:28.917Z,99625.05
2024-02-01T23:04:30.781Z,99620.83
2024-02-01T23:09:33.109Z,99623.34
2024-02-01T23:14:35.342Z,99618.70
2024-02-01T23:19:37.599Z,99618.44
2024-02-01T23:24:42.009Z,99608.70
2024-02-01T23:29:43.954Z,99612.27
2024-02-01T23:34:46.276Z,99614.48
2024-02-01T23:39:48.619Z,99611.25
2024-02-01T23:44:50.554Z,99613.10
2024-02-01T23:49:52.586Z,99610.84
2024-02-01T23:54:56.646Z,99617.73
2024-02-01T23:59:58.648Z,99615.86
